createdAt,value
2018-09-21T00:00:23.057Z,18.31
2018-09-21T00:02:51.201Z,18.28
2018-09-21T00:05:19.344Z,18.24
2018-09-21T00:07:47.529Z,18.23
2018-09-21T00:10:15.620Z,18.22
2018-09-21T00:12:43.761Z,18.32
2018-09-21T00:15:11.843Z,18.30
2018-09-21T00:17:39.930Z,18.25
2018-09-21T00:20:08.078Z,18.24
2018-09-21T00:22:36.178Z,18.29
2018-09-21T00:25:04.433Z,18.25
2018-09-21T00:27:32.552Z,18.13
2018-09-21T00:30:00.674Z,18.19
2018-09-21T00:32:28.781Z,18.13
2018-09-21T00:34:56.941Z,18.18
2018-09-21T00:37:25.037Z,18.23
2018-09-21T00:39:53.184Z,18.15
2018-09-21T00:42:21.330Z,18.12
2018-09-21T00:44:49.453Z,18.15
2018-09-21T00:47:17.601Z,18.13
2018-09-21T00:49:45.708Z,18.11
2018-09-21T00:52:13.845Z,18.08
2018-09-21T00:54:41.997Z,18.12
2018-09-21T00:57:10.111Z,18.08
2018-09-21T00:59:38.203Z,17.99
2018-09-21T01:02:06.328Z,17.98
2018-09-21T01:04:39.843Z,17.95
2018-09-21T01:07:07.983Z,17.81
2018-09-21T01:09:36.108Z,17.89
2018-09-21T01:12:04.236Z,17.83
2018-09-21T01:14:32.398Z,17.92
2018-09-21T01:17:00.619Z,17.94
2018-09-21T01:19:28.768Z,17.84
2018-09-21T01:21:56.885Z,17.63
2018-09-21T01:24:25.047Z,17.53
2018-09-21T01:26:53.189Z,17.43
2018-09-21T01:29:21.343Z,17.53
2018-09-21T01:31:49.440Z,17.52
2018-09-21T01:34:17.611Z,17.38
2018-09-21T01:36:45.688Z,17.40
2018-09-21T01:39:13.839Z,17.29
2018-09-21T01:41:42.011Z,17.35
2018-09-21T01:44:10.396Z,17.36
2018-09-21T01:46:38.845Z,17.30
2018-09-21T01:49:07.080Z,17.44
2018-09-21T01:51:35.219Z,17.53
2018-09-21T01:54:03.320Z,17.57
2018-09-21T01:56:31.468Z,17.68
2018-09-21T01:58:59.560Z,17.62
2018-09-21T02:01:27.700Z,17.56
2018-09-21T02:03:55.811Z,17.53
2018-09-21T02:06:23.912Z,17.55
2018-09-21T02:08:52.017Z,17.66
2018-09-21T02:11:20.274Z,17.80
2018-09-21T02:13:48.529Z,17.78
2018-09-21T02:16:16.643Z,17.75
2018-09-21T02:18:44.739Z,17.63
2018-09-21T02:21:12.872Z,17.62
2018-09-21T02:23:41.782Z,17.74
2018-09-21T02:26:09.918Z,17.74
2018-09-21T02:28:38.004Z,17.68
2018-09-21T02:31:06.312Z,17.67
2018-09-21T02:33:34.403Z,17.51
2018-09-21T02:36:02.565Z,17.63
2018-09-21T02:38:30.700Z,17.77
2018-09-21T02:40:58.842Z,17.88
2018-09-21T02:43:26.965Z,17.79
2018-09-21T02:45:55.133Z,17.85
2018-09-21T02:48:23.263Z,17.95
2018-09-21T02:50:51.385Z,17.87
2018-09-21T02:53:19.505Z,17.78
2018-09-21T02:55:47.635Z,17.74
2018-09-21T02:58:15.763Z,17.82
2018-09-21T03:00:43.963Z,17.92
2018-09-21T03:03:12.018Z,17.96
2018-09-21T03:05:40.185Z,17.93
2018-09-21T03:08:08.309Z,17.86
2018-09-21T03:10:36.409Z,17.82
2018-09-21T03:13:04.510Z,17.77
2018-09-21T03:15:32.607Z,17.67
2018-09-21T03:18:00.722Z,17.72
2018-09-21T03:20:28.849Z,17.54
2018-09-21T03:22:56.982Z,17.70
2018-09-21T03:25:25.158Z,17.69
2018-09-21T03:27:53.281Z,17.75
2018-09-21T03:30:21.426Z,17.74
2018-09-21T03:32:49.525Z,17.56
2018-09-21T03:35:17.699Z,17.58
2018-09-21T03:37:45.801Z,17.71
2018-09-21T03:40:13.907Z,17.72
2018-09-21T03:42:42.000Z,17.77
2018-09-21T03:45:10.112Z,17.53
2018-09-21T03:47:38.282Z,17.51
2018-09-21T03:50:06.539Z,17.64
2018-09-21T03:52:34.659Z,17.54
2018-09-21T03:55:02.761Z,17.60
2018-09-21T03:57:30.882Z,17.57
2018-09-21T03:59:59.000Z,17.47
2018-09-21T04:02:27.148Z,17.53
2018-09-21T04:04:55.352Z,17.64
2018-09-21T04:07:23.508Z,17.67
2018-09-21T04:09:51.622Z,17.59
2018-09-21T04:12:19.725Z,17.69
2018-09-21T04:14:47.907Z,17.67
2018-09-21T04:17:16.049Z,17.81
2018-09-21T04:19:44.202Z,17.89
2018-09-21T04:22:12.336Z,17.81
2018-09-21T04:24:40.455Z,17.81
2018-09-21T04:27:08.618Z,17.95
2018-09-21T04:29:36.752Z,18.04
2018-09-21T04:32:04.933Z,18.10
2018-09-21T04:34:33.080Z,17.98
2018-09-21T04:37:01.209Z,18.02
2018-09-21T04:39:29.346Z,18.06
2018-09-21T04:41:57.441Z,17.98
2018-09-21T04:44:25.549Z,18.01
2018-09-21T04:46:53.679Z,17.96
2018-09-21T04:49:21.805Z,17.93
2018-09-21T04:51:49.954Z,18.02
2018-09-21T04:54:18.090Z,18.06
2018-09-21T04:56:46.207Z,17.96
2018-09-21T04:59:14.338Z,17.90
2018-09-21T05:01:42.517Z,18.01
2018-09-21T05:04:10.700Z,17.97
2018-09-21T05:06:38.845Z,17.98
2018-09-21T05:09:08.242Z,18.03
2018-09-21T05:11:36.353Z,18.03
2018-09-21T05:14:04.628Z,18.09
2018-09-21T05:16:32.763Z,18.14
2018-09-21T05:19:00.889Z,18.19
2018-09-21T05:21:28.981Z,18.29
2018-09-21T05:23:57.077Z,18.31
2018-09-21T05:26:25.157Z,18.33
2018-09-21T05:28:53.296Z,18.47
2018-09-21T05:31:21.386Z,18.48
2018-09-21T05:33:49.537Z,18.52
2018-09-21T05:36:17.656Z,18.60
2018-09-21T05:38:45.763Z,18.65
2018-09-21T05:41:13.885Z,18.81
2018-09-21T05:43:42.430Z,18.82
2018-09-21T05:46:10.536Z,18.97
2018-09-21T05:48:38.739Z,18.99
2018-09-21T05:51:07.109Z,19.16
2018-09-21T05:53:35.204Z,19.18
2018-09-21T05:56:03.357Z,19.23
2018-09-21T05:58:31.462Z,19.37
2018-09-21T06:00:59.582Z,19.38
2018-09-21T06:03:27.713Z,19.36
2018-09-21T06:05:55.833Z,19.46
2018-09-21T06:08:24.009Z,19.62
2018-09-21T06:10:52.093Z,19.82
2018-09-21T06:13:20.233Z,19.89
2018-09-21T06:15:48.334Z,19.83
2018-09-21T06:18:16.653Z,19.88
2018-09-21T06:20:44.789Z,19.97
2018-09-21T06:23:12.922Z,20.12
2018-09-21T06:25:41.053Z,20.26
2018-09-21T06:28:09.208Z,20.34
2018-09-21T06:30:37.355Z,20.41
2018-09-21T06:33:05.463Z,20.64
2018-09-21T06:35:33.533Z,20.75
2018-09-21T06:38:01.673Z,20.90
2018-09-21T06:40:29.807Z,20.97
2018-09-21T06:42:57.917Z,20.89
2018-09-21T06:45:26.120Z,20.94
2018-09-21T06:47:54.356Z,21.07
2018-09-21T06:50:22.497Z,20.96
2018-09-21T06:52:50.629Z,21.01
2018-09-21T06:55:18.796Z,20.96
2018-09-21T06:57:46.937Z,20.96
2018-09-21T07:00:15.081Z,20.89
2018-09-21T07:02:43.194Z,20.98
2018-09-21T07:05:13.022Z,21.12
2018-09-21T07:07:41.173Z,21.21
2018-09-21T07:10:09.289Z,21.24
2018-09-21T07:12:37.447Z,21.31
2018-09-21T07:15:05.593Z,21.40
2018-09-21T07:17:33.732Z,21.43
2018-09-21T07:20:01.931Z,21.50
2018-09-21T07:22:30.048Z,21.56
2018-09-21T07:24:58.222Z,21.60
2018-09-21T07:27:26.326Z,21.64
2018-09-21T07:29:54.417Z,21.69
2018-09-21T07:32:22.671Z,21.82
2018-09-21T07:34:50.772Z,21.87
2018-09-21T07:37:18.921Z,21.90
2018-09-21T07:39:47.022Z,21.95
2018-09-21T07:42:15.397Z,22.05
2018-09-21T07:44:43.515Z,22.11
2018-09-21T07:47:11.597Z,22.22
2018-09-21T07:49:39.728Z,22.31
2018-09-21T07:52:07.835Z,22.36
2018-09-21T07:54:35.985Z,22.41
2018-09-21T07:57:04.113Z,22.42
2018-09-21T07:59:32.427Z,22.47
2018-09-21T08:02:00.919Z,22.49
2018-09-21T08:04:29.412Z,22.59
2018-09-21T08:06:57.572Z,22.72
2018-09-21T08:09:25.718Z,22.69
2018-09-21T08:11:53.876Z,22.73
2018-09-21T08:14:21.986Z,22.80
2018-09-21T08:16:50.111Z,22.85
2018-09-21T08:19:18.275Z,22.90
2018-09-21T08:21:46.372Z,23.02
2018-09-21T08:24:14.482Z,23.15
2018-09-21T08:26:42.727Z,23.10
2018-09-21T08:29:10.737Z,23.15
2018-09-21T08:31:38.890Z,23.07
2018-09-21T08:34:07.122Z,23.09
2018-09-21T08:36:35.257Z,23.02
2018-09-21T08:39:03.553Z,23.09
2018-09-21T08:41:31.708Z,23.15
2018-09-21T08:43:59.824Z,23.26
2018-09-21T08:46:27.951Z,23.36
2018-09-21T08:48:56.059Z,23.42
2018-09-21T08:51:24.164Z,23.30
2018-09-21T08:53:52.307Z,23.33
2018-09-21T08:56:20.426Z,23.27
2018-09-21T08:58:48.513Z,23.24
2018-09-21T09:01:16.699Z,23.24
2018-09-21T09:03:44.812Z,23.28
2018-09-21T09:06:12.953Z,23.24
2018-09-21T09:08:41.057Z,23.27
2018-09-21T09:11:09.186Z,23.29
2018-09-21T09:13:37.277Z,23.29
2018-09-21T09:16:05.373Z,23.35
2018-09-21T09:18:33.484Z,23.37
2018-09-21T09:21:01.633Z,23.36
2018-09-21T09:23:29.781Z,23.33
2018-09-21T09:25:57.910Z,23.36
2018-09-21T09:28:26.040Z,23.38
2018-09-21T09:30:54.209Z,23.46
2018-09-21T09:33:22.309Z,23.44
2018-09-21T09:35:50.422Z,23.48
2018-09-21T09:38:18.729Z,23.40
2018-09-21T09:40:46.801Z,23.53
2018-09-21T09:43:14.915Z,23.53
2018-09-21T09:45:43.021Z,23.31
2018-09-21T09:48:11.169Z,23.25
2018-09-21T09:50:39.302Z,23.18
2018-09-21T09:53:07.402Z,23.25
2018-09-21T09:55:35.513Z,23.24
2018-09-21T09:58:03.645Z,23.27
2018-09-21T10:00:35.809Z,23.29
2018-09-21T10:03:03.933Z,23.25
2018-09-21T10:05:32.064Z,23.19
2018-09-21T10:08:00.174Z,22.96
2018-09-21T10:10:28.341Z,22.75
2018-09-21T10:12:56.437Z,22.52
2018-09-21T10:15:24.546Z,22.39
2018-09-21T10:17:52.663Z,22.22
2018-09-21T10:20:20.813Z,22.12
2018-09-21T10:22:48.930Z,22.08
2018-09-21T10:25:17.045Z,22.01
2018-09-21T10:27:45.260Z,22.05
2018-09-21T10:30:13.261Z,22.01
2018-09-21T10:32:41.380Z,21.93
2018-09-21T10:35:09.522Z,21.97
2018-09-21T10:37:37.631Z,21.80
2018-09-21T10:40:05.840Z,21.67
2018-09-21T10:42:33.970Z,21.44
2018-09-21T10:45:02.045Z,21.54
2018-09-21T10:47:30.197Z,21.54
2018-09-21T10:49:58.313Z,21.59
2018-09-21T10:52:26.463Z,21.34
2018-09-21T10:54:54.597Z,21.36
2018-09-21T10:57:22.709Z,21.44
2018-09-21T10:59:50.836Z,21.34
2018-09-21T11:02:18.939Z,21.22
2018-09-21T11:04:47.068Z,20.99
2018-09-21T11:07:15.263Z,18.98
2018-09-21T11:09:43.328Z,16.96
2018-09-21T11:12:11.479Z,16.43
2018-09-21T11:14:39.636Z,15.32
2018-09-21T11:17:07.805Z,14.95
2018-09-21T11:19:35.915Z,14.83
2018-09-21T11:22:04.043Z,14.71
2018-09-21T11:24:32.186Z,14.78
2018-09-21T11:27:00.322Z,14.57
2018-09-21T11:29:28.454Z,14.39
2018-09-21T11:31:56.580Z,14.00
2018-09-21T11:34:24.705Z,13.73
2018-09-21T11:36:52.838Z,13.76
2018-09-21T11:39:20.969Z,13.64
2018-09-21T11:41:49.117Z,13.73
2018-09-21T11:44:17.238Z,13.74
2018-09-21T11:46:45.406Z,13.54
2018-09-21T11:49:13.589Z,13.74
2018-09-21T11:51:41.701Z,13.56
2018-09-21T11:54:09.838Z,13.52
2018-09-21T11:56:37.980Z,13.49
2018-09-21T11:59:06.109Z,13.64
2018-09-21T12:01:34.267Z,13.70
2018-09-21T12:04:02.418Z,13.70
2018-09-21T12:06:30.590Z,13.70
2018-09-21T12:08:58.757Z,13.73
2018-09-21T12:11:26.931Z,13.89
2018-09-21T12:13:55.080Z,13.77
2018-09-21T12:16:23.186Z,13.89
2018-09-21T12:18:51.344Z,14.01
2018-09-21T12:21:19.701Z,14.24
2018-09-21T12:23:47.902Z,14.17
2018-09-21T12:26:16.013Z,14.24
2018-09-21T12:28:44.190Z,14.25
2018-09-21T12:31:12.332Z,14.36
2018-09-21T12:33:40.457Z,14.39
2018-09-21T12:36:08.772Z,14.36
2018-09-21T12:38:36.899Z,14.37
2018-09-21T12:41:05.021Z,14.32
2018-09-21T12:43:33.299Z,14.45
2018-09-21T12:46:02.356Z,14.43
2018-09-21T12:48:30.492Z,14.23
2018-09-21T12:50:58.648Z,14.35
2018-09-21T12:53:26.753Z,14.46
2018-09-21T12:55:54.882Z,14.36
2018-09-21T12:58:23.145Z,14.36
2018-09-21T13:00:51.708Z,14.39
2018-09-21T13:03:20.568Z,14.50
2018-09-21T13:05:52.848Z,14.47
2018-09-21T13:08:20.983Z,14.45
2018-09-21T13:10:49.157Z,14.57
2018-09-21T13:13:17.292Z,14.38
2018-09-21T13:15:45.429Z,14.56
2018-09-21T13:18:13.591Z,14.50
2018-09-21T13:20:41.858Z,14.51
2018-09-21T13:23:10.061Z,14.57
2018-09-21T13:25:38.342Z,14.38
2018-09-21T13:28:06.785Z,14.48
2018-09-21T13:30:34.896Z,14.53
2018-09-21T13:33:03.189Z,14.42
2018-09-21T13:35:31.377Z,14.47
2018-09-21T13:38:00.089Z,14.56
2018-09-21T13:40:28.255Z,14.61
2018-09-21T13:42:56.429Z,14.61
2018-09-21T13:45:24.585Z,14.48
2018-09-21T13:47:53.297Z,14.62
2018-09-21T13:50:21.702Z,14.66
2018-09-21T13:52:49.871Z,14.58
2018-09-21T13:55:17.973Z,14.63
2018-09-21T13:57:46.156Z,14.70
2018-09-21T14:00:14.366Z,14.68
2018-09-21T14:02:43.111Z,14.80
2018-09-21T14:05:11.499Z,14.75
2018-09-21T14:07:40.284Z,14.70
2018-09-21T14:10:08.416Z,14.82
2018-09-21T14:12:36.562Z,14.73
2018-09-21T14:15:04.809Z,14.75
2018-09-21T14:17:32.972Z,14.65
2018-09-21T14:20:01.115Z,14.70
2018-09-21T14:22:29.337Z,14.81
2018-09-21T14:24:57.493Z,14.66
2018-09-21T14:27:25.653Z,14.76
2018-09-21T14:29:54.883Z,14.69
2018-09-21T14:32:24.099Z,14.43
2018-09-21T14:34:52.267Z,14.36
2018-09-21T14:37:20.438Z,14.31
2018-09-21T14:39:48.565Z,14.14
2018-09-21T14:42:16.713Z,14.18
2018-09-21T14:44:44.945Z,14.13
2018-09-21T14:47:13.088Z,14.10
2018-09-21T14:49:41.241Z,14.04
2018-09-21T14:52:09.383Z,13.99
2018-09-21T14:54:37.515Z,13.89
2018-09-21T14:57:05.679Z,13.95
2018-09-21T14:59:33.842Z,13.89
2018-09-21T15:02:02.020Z,13.79
2018-09-21T15:04:30.342Z,13.80
2018-09-21T15:06:58.509Z,13.82
2018-09-21T15:09:26.654Z,13.79
2018-09-21T15:11:55.039Z,13.80
2018-09-21T15:14:23.530Z,13.78
2018-09-21T15:16:51.989Z,13.89
2018-09-21T15:19:20.750Z,13.90
2018-09-21T15:21:49.316Z,13.85
2018-09-21T15:24:17.723Z,13.93
2018-09-21T15:26:46.054Z,13.98
2018-09-21T15:29:14.180Z,14.06
2018-09-21T15:31:42.345Z,14.18
2018-09-21T15:34:10.505Z,14.25
2018-09-21T15:36:38.620Z,14.25
2018-09-21T15:39:09.435Z,14.29
2018-09-21T15:41:37.612Z,14.25
2018-09-21T15:44:05.882Z,14.16
2018-09-21T15:46:34.012Z,14.21
2018-09-21T15:49:02.913Z,14.34
2018-09-21T15:51:31.807Z,14.33
2018-09-21T15:53:59.969Z,14.37
2018-09-21T15:56:28.206Z,14.44
2018-09-21T15:58:56.364Z,14.42
2018-09-21T16:01:31.349Z,14.20
2018-09-21T16:03:59.678Z,14.20
2018-09-21T16:06:32.469Z,14.03
2018-09-21T16:09:01.250Z,14.04
2018-09-21T16:11:29.475Z,14.02
2018-09-21T16:13:57.680Z,13.92
2018-09-21T16:16:25.895Z,13.92
2018-09-21T16:18:54.222Z,13.85
2018-09-21T16:21:22.727Z,13.79
2018-09-21T16:23:50.895Z,13.79
2018-09-21T16:26:19.119Z,13.76
2018-09-21T16:29:41.431Z,13.72
2018-09-21T16:32:09.658Z,13.71
2018-09-21T16:34:37.883Z,13.75
2018-09-21T16:37:06.165Z,13.72
2018-09-21T16:39:34.341Z,13.71
2018-09-21T16:42:02.535Z,13.67
2018-09-21T16:44:30.784Z,13.62
2018-09-21T16:46:58.929Z,13.69
2018-09-21T16:49:27.088Z,13.57
2018-09-21T16:51:55.249Z,13.44
2018-09-21T16:54:23.409Z,13.35
2018-09-21T16:56:51.571Z,13.33
2018-09-21T16:59:19.800Z,13.30
2018-09-21T17:01:47.925Z,13.27
2018-09-21T17:04:16.190Z,13.23
2018-09-21T17:06:44.268Z,13.26
2018-09-21T17:09:13.036Z,13.24
2018-09-21T17:11:41.168Z,13.22
2018-09-21T17:14:09.389Z,13.23
2018-09-21T17:16:37.590Z,13.29
2018-09-21T17:19:06.151Z,13.30
2018-09-21T17:21:37.288Z,13.28
2018-09-21T17:24:12.460Z,13.40
2018-09-21T17:26:40.664Z,13.31
2018-09-21T17:29:08.823Z,13.27
2018-09-21T17:31:37.018Z,12.96
2018-09-21T17:34:05.377Z,12.77
2018-09-21T17:36:33.680Z,12.61
2018-09-21T17:39:01.885Z,12.39
2018-09-21T17:41:30.089Z,12.40
2018-09-21T17:43:58.258Z,12.28
2018-09-21T17:46:26.416Z,12.20
2018-09-21T17:48:54.649Z,12.16
2018-09-21T17:51:22.849Z,12.10
2018-09-21T17:53:51.045Z,12.04
2018-09-21T17:56:19.193Z,12.05
2018-09-21T17:58:47.364Z,12.01
2018-09-21T18:01:16.266Z,12.04
2018-09-21T18:03:45.151Z,12.08
2018-09-21T18:06:13.983Z,12.12
2018-09-21T18:08:42.887Z,12.09
2018-09-21T18:11:11.914Z,12.15
2018-09-21T18:13:41.762Z,12.16
2018-09-21T18:16:10.694Z,12.09
2018-09-21T18:18:39.539Z,12.07
2018-09-21T18:21:08.357Z,11.97
2018-09-21T18:23:37.044Z,12.07
2018-09-21T18:26:06.132Z,12.06
2018-09-21T18:28:34.983Z,12.09
2018-09-21T18:31:03.811Z,12.19
2018-09-21T18:33:32.611Z,12.04
2018-09-21T18:36:00.812Z,12.10
2018-09-21T18:38:28.953Z,12.09
2018-09-21T18:40:57.137Z,12.14
2018-09-21T18:43:25.245Z,11.99
2018-09-21T18:45:53.385Z,11.99
2018-09-21T18:48:21.529Z,11.83
2018-09-21T18:50:50.023Z,11.63
2018-09-21T18:53:18.080Z,11.64
2018-09-21T18:55:46.241Z,11.58
2018-09-21T18:58:14.373Z,11.67
2018-09-21T19:00:42.509Z,11.68
2018-09-21T19:03:10.626Z,11.65
2018-09-21T19:05:38.796Z,11.61
2018-09-21T19:08:06.964Z,11.53
2018-09-21T19:10:35.129Z,11.39
2018-09-21T19:13:03.288Z,11.55
2018-09-21T19:15:31.428Z,11.62
2018-09-21T19:17:59.542Z,11.50
2018-09-21T19:20:27.706Z,11.60
2018-09-21T19:22:55.856Z,11.79
2018-09-21T19:25:23.964Z,11.81
2018-09-21T19:27:52.119Z,11.84
2018-09-21T19:30:20.293Z,11.87
2018-09-21T19:32:48.484Z,11.94
2018-09-21T19:35:16.545Z,11.95
2018-09-21T19:37:44.665Z,11.93
2018-09-21T19:40:12.820Z,11.96
2018-09-21T19:42:41.024Z,12.03
2018-09-21T19:45:09.270Z,12.01
2018-09-21T19:47:37.271Z,11.94
2018-09-21T19:50:06.063Z,11.99
2018-09-21T19:52:34.222Z,11.88
2018-09-21T19:55:02.346Z,11.89
2018-09-21T19:57:30.569Z,11.79
2018-09-21T19:59:58.795Z,11.82
2018-09-21T20:02:26.983Z,11.98
2018-09-21T20:04:55.187Z,11.94
2018-09-21T20:07:23.309Z,11.98
2018-09-21T20:09:51.474Z,11.85
2018-09-21T20:12:19.616Z,11.82
2018-09-21T20:14:47.761Z,11.85
2018-09-21T20:17:15.885Z,11.83
2018-09-21T20:19:44.053Z,11.85
2018-09-21T20:22:12.224Z,11.71
2018-09-21T20:24:40.388Z,11.69
2018-09-21T20:27:08.534Z,11.65
2018-09-21T20:29:36.640Z,11.66
2018-09-21T20:32:10.151Z,11.69
2018-09-21T20:34:38.297Z,11.73
2018-09-21T20:37:06.459Z,11.57
2018-09-21T20:39:34.582Z,11.48
2018-09-21T20:42:02.692Z,11.46
2018-09-21T20:44:30.838Z,11.38
2018-09-21T20:46:59.013Z,11.39
2018-09-21T20:49:27.147Z,11.49
2018-09-21T20:51:55.397Z,11.43
2018-09-21T20:54:23.482Z,11.43
2018-09-21T20:56:51.621Z,11.46
2018-09-21T20:59:20.498Z,11.37
2018-09-21T21:01:48.649Z,11.29
2018-09-21T21:04:16.749Z,11.29
2018-09-21T21:06:44.889Z,11.29
2018-09-21T21:09:13.021Z,11.26
2018-09-21T21:11:41.154Z,11.16
2018-09-21T21:14:09.298Z,11.21
2018-09-21T21:16:37.429Z,11.05
2018-09-21T21:19:05.976Z,11.03
2018-09-21T21:21:34.141Z,11.09
2018-09-21T21:24:02.292Z,10.97
2018-09-21T21:26:30.461Z,11.01
2018-09-21T21:28:58.606Z,10.87
2018-09-21T21:31:26.792Z,10.87
2018-09-21T21:33:54.933Z,10.87
2018-09-21T21:36:23.049Z,10.79
2018-09-21T21:38:51.169Z,10.72
2018-09-21T21:41:19.316Z,10.69
2018-09-21T21:43:47.461Z,10.67
2018-09-21T21:46:15.613Z,10.70
2018-09-21T21:48:43.757Z,10.65
2018-09-21T21:51:11.882Z,10.64
2018-09-21T21:53:40.665Z,10.57
2018-09-21T21:56:08.855Z,10.50
2018-09-21T21:58:36.961Z,10.51
2018-09-21T22:01:10.615Z,10.41
2018-09-21T22:03:39.099Z,10.51
2018-09-21T22:06:07.268Z,10.38
2018-09-21T22:08:35.460Z,10.32
2018-09-21T22:11:07.816Z,10.29
2018-09-21T22:13:44.353Z,10.27
2018-09-21T22:16:12.510Z,10.26
2018-09-21T22:18:40.660Z,10.31
2018-09-21T22:21:08.852Z,10.33
2018-09-21T22:23:37.017Z,10.28
2018-09-21T22:26:05.128Z,10.21
2018-09-21T22:28:33.296Z,10.17
2018-09-21T22:31:01.423Z,10.19
2018-09-21T22:33:29.562Z,10.15
2018-09-21T22:35:57.765Z,10.21
2018-09-21T22:38:25.892Z,10.11
2018-09-21T22:40:54.084Z,10.15
2018-09-21T22:43:22.283Z,10.10
2018-09-21T22:45:50.453Z,10.01
2018-09-21T22:48:18.598Z,9.99
2018-09-21T22:50:46.749Z,10.00
2018-09-21T22:53:14.897Z,10.03
2018-09-21T22:55:43.046Z,10.01
2018-09-21T22:58:11.204Z,10.11
2018-09-21T23:00:39.308Z,10.00
2018-09-21T23:03:07.408Z,10.05
2018-09-21T23:05:35.561Z,10.09
2018-09-21T23:08:03.726Z,10.14
2018-09-21T23:10:31.836Z,10.00
2018-09-21T23:12:59.974Z,10.03
2018-09-21T23:15:28.098Z,10.08
2018-09-21T23:17:56.250Z,9.98
2018-09-21T23:20:24.452Z,9.95
2018-09-21T23:22:52.569Z,9.97
2018-09-21T23:25:20.672Z,10.03
2018-09-21T23:27:48.773Z,9.94
2018-09-21T23:30:16.902Z,9.98
2018-09-21T23:32:45.017Z,10.01
2018-09-21T23:35:13.175Z,9.94
2018-09-21T23:37:41.312Z,9.88
2018-09-21T23:40:09.449Z,9.91
2018-09-21T23:42:37.583Z,9.99
2018-09-21T23:45:12.132Z,10.02
2018-09-21T23:47:40.278Z,10.07
2018-09-21T23:50:08.443Z,10.10
2018-09-21T23:52:36.581Z,10.03
2018-09-21T23:55:04.919Z,10.00
2018-09-21T23:57:33.060Z,9.95
